createdAt,value
2019-01-20T00:02:21.304Z,5.80
2019-01-20T00:04:54.079Z,5.80
2019-01-20T00:07:28.809Z,5.80
2019-01-20T00:10:01.720Z,5.80
2019-01-20T00:12:34.459Z,5.80
2019-01-20T00:15:08.484Z,5.80
2019-01-20T00:17:41.139Z,5.80
2019-01-20T00:20:13.718Z,5.90
2019-01-20T00:22:47.039Z,5.80
2019-01-20T00:25:19.422Z,5.80
2019-01-20T00:27:52.329Z,5.80
2019-01-20T00:30:25.963Z,5.80
2019-01-20T00:32:59.398Z,5.90
2019-01-20T00:35:33.843Z,5.90
2019-01-20T00:38:06.774Z,5.90
2019-01-20T00:40:39.804Z,5.90
2019-01-20T00:43:12.484Z,5.80
2019-01-20T00:45:45.734Z,5.80
2019-01-20T00:48:18.445Z,5.80
2019-01-20T00:50:50.904Z,5.80
2019-01-20T00:53:23.938Z,5.90
2019-01-20T00:55:56.694Z,5.90
2019-01-20T00:58:29.384Z,5.90
2019-01-20T01:01:02.505Z,5.90
2019-01-20T01:03:35.083Z,5.80
2019-01-20T01:06:08.099Z,5.90
2019-01-20T01:08:41.200Z,5.80
2019-01-20T01:11:13.530Z,5.80
2019-01-20T01:13:46.634Z,5.80
2019-01-20T01:16:19.694Z,5.80
2019-01-20T01:18:52.123Z,5.80
2019-01-20T01:21:25.084Z,5.80
2019-01-20T01:23:58.019Z,5.70
2019-01-20T01:26:30.844Z,5.70
2019-01-20T01:29:03.544Z,5.70
2019-01-20T01:31:36.404Z,5.70
2019-01-20T01:34:09.514Z,5.60
2019-01-20T01:36:42.100Z,5.60
2019-01-20T01:39:15.195Z,5.60
2019-01-20T01:41:47.859Z,5.60
2019-01-20T01:44:20.510Z,5.60
2019-01-20T01:46:55.005Z,5.60
2019-01-20T01:49:31.528Z,5.50
2019-01-20T01:52:03.823Z,5.60
2019-01-20T01:54:36.459Z,5.60
2019-01-20T01:57:09.304Z,5.60
2019-01-20T01:59:42.124Z,5.60
2019-01-20T02:02:15.091Z,5.70
2019-01-20T02:04:47.550Z,5.70
2019-01-20T02:07:20.204Z,5.60
2019-01-20T02:09:53.044Z,5.60
2019-01-20T02:12:26.100Z,5.60
2019-01-20T02:14:59.065Z,5.50
2019-01-20T02:17:32.443Z,5.60
2019-01-20T02:20:05.484Z,5.50
2019-01-20T02:22:38.444Z,5.50
2019-01-20T02:25:11.343Z,5.40
2019-01-20T02:27:44.114Z,5.40
2019-01-20T02:30:20.560Z,5.40
2019-01-20T02:32:53.124Z,5.40
2019-01-20T02:35:26.223Z,5.30
2019-01-20T02:37:58.649Z,5.30
2019-01-20T02:40:31.485Z,5.40
2019-01-20T02:43:03.880Z,5.30
2019-01-20T02:45:37.059Z,5.20
2019-01-20T02:48:09.705Z,5.30
2019-01-20T02:50:42.444Z,5.30
2019-01-20T02:53:14.939Z,5.20
2019-01-20T02:55:47.842Z,5.10
2019-01-20T02:58:20.284Z,5.10
2019-01-20T03:00:52.890Z,5.10
2019-01-20T03:03:25.825Z,5.20
2019-01-20T03:05:58.906Z,5.10
2019-01-20T03:08:31.754Z,5.10
2019-01-20T03:11:04.664Z,5.00
2019-01-20T03:13:37.860Z,5.00
2019-01-20T03:16:10.693Z,5.00
2019-01-20T03:18:43.817Z,5.10
2019-01-20T03:21:16.899Z,5.10
2019-01-20T03:23:49.683Z,5.10
2019-01-20T03:26:22.299Z,5.00
2019-01-20T03:28:54.835Z,5.00
2019-01-20T03:31:27.465Z,5.00
2019-01-20T03:33:59.765Z,4.90
2019-01-20T03:36:32.804Z,4.90
2019-01-20T03:39:06.798Z,5.00
2019-01-20T03:41:39.664Z,4.90
2019-01-20T03:44:11.944Z,4.90
2019-01-20T03:46:44.519Z,4.90
2019-01-20T03:49:17.621Z,4.90
2019-01-20T03:51:50.300Z,4.80
2019-01-20T03:54:22.899Z,4.90
2019-01-20T03:56:55.479Z,4.80
2019-01-20T03:59:27.973Z,4.90
2019-01-20T04:02:00.600Z,4.80
2019-01-20T04:04:32.924Z,4.80
2019-01-20T04:07:05.904Z,4.80
2019-01-20T04:09:38.906Z,4.80
2019-01-20T04:12:20.303Z,4.80
2019-01-20T04:14:47.263Z,4.80
2019-01-20T04:17:20.064Z,4.80
2019-01-20T04:19:52.665Z,4.80
2019-01-20T04:22:25.364Z,4.80
2019-01-20T04:24:58.164Z,4.70
2019-01-20T04:27:31.044Z,4.80
2019-01-20T04:30:03.715Z,4.70
2019-01-20T04:32:36.664Z,4.70
2019-01-20T04:35:10.324Z,4.70
2019-01-20T04:37:43.047Z,4.70
2019-01-20T04:40:18.694Z,4.70
2019-01-20T04:42:51.939Z,4.70
2019-01-20T04:45:24.927Z,4.70
2019-01-20T04:47:58.019Z,4.70
2019-01-20T04:50:30.804Z,4.70
2019-01-20T04:53:03.506Z,4.70
2019-01-20T04:55:37.180Z,4.70
2019-01-20T04:58:09.869Z,4.70
2019-01-20T05:00:42.463Z,4.70
2019-01-20T05:03:15.184Z,4.70
2019-01-20T05:05:47.833Z,4.70
2019-01-20T05:08:21.106Z,4.80
2019-01-20T05:10:53.464Z,4.80
2019-01-20T05:13:26.279Z,4.80
2019-01-20T05:15:58.801Z,4.80
2019-01-20T05:18:31.599Z,4.90
2019-01-20T05:21:04.270Z,4.90
2019-01-20T05:23:36.904Z,4.90
2019-01-20T05:26:09.903Z,4.90
2019-01-20T05:28:43.037Z,5.00
2019-01-20T05:31:15.404Z,5.00
2019-01-20T05:33:48.003Z,5.00
2019-01-20T05:36:21.023Z,5.00
2019-01-20T05:38:54.044Z,5.00
2019-01-20T05:41:26.884Z,5.00
2019-01-20T05:43:59.300Z,5.00
2019-01-20T05:46:31.983Z,5.00
2019-01-20T05:49:04.625Z,5.10
2019-01-20T05:51:37.679Z,5.10
2019-01-20T05:54:10.039Z,5.20
2019-01-20T05:56:43.413Z,5.20
2019-01-20T05:59:16.263Z,5.20
2019-01-20T06:01:49.283Z,5.20
2019-01-20T06:04:22.186Z,5.30
2019-01-20T06:06:55.204Z,5.20
2019-01-20T06:09:27.687Z,5.20
2019-01-20T06:12:00.164Z,5.20
2019-01-20T06:14:32.964Z,5.20
2019-01-20T06:17:05.564Z,5.40
2019-01-20T06:19:38.439Z,5.60
2019-01-20T06:22:11.504Z,5.50
2019-01-20T06:24:43.914Z,5.50
2019-01-20T06:27:19.704Z,5.60
2019-01-20T06:29:52.194Z,5.60
2019-01-20T06:32:24.986Z,5.70
2019-01-20T06:34:58.484Z,5.70
2019-01-20T06:37:31.859Z,5.70
2019-01-20T06:40:04.763Z,5.80
2019-01-20T06:42:37.064Z,5.90
2019-01-20T06:45:10.845Z,5.80
2019-01-20T06:47:43.324Z,5.80
2019-01-20T06:50:16.716Z,5.80
2019-01-20T06:52:49.824Z,6.00
2019-01-20T06:55:23.246Z,5.80
2019-01-20T06:57:56.627Z,6.00
2019-01-20T07:00:29.365Z,6.00
2019-01-20T07:03:02.035Z,6.00
2019-01-20T07:05:35.267Z,6.00
2019-01-20T07:08:08.245Z,6.00
2019-01-20T07:10:40.986Z,6.00
2019-01-20T07:13:14.175Z,6.00
2019-01-20T07:15:47.090Z,6.00
2019-01-20T07:18:20.165Z,6.10
2019-01-20T07:20:53.345Z,6.20
2019-01-20T07:23:26.685Z,6.20
2019-01-20T07:25:59.959Z,6.20
2019-01-20T07:28:33.245Z,6.10
2019-01-20T07:31:06.048Z,6.10
2019-01-20T07:33:38.584Z,6.20
2019-01-20T07:36:11.125Z,6.20
2019-01-20T07:38:43.844Z,6.30
2019-01-20T07:41:17.085Z,6.20
2019-01-20T07:43:49.867Z,6.50
2019-01-20T07:46:22.730Z,6.60
2019-01-20T07:48:55.365Z,6.60
2019-01-20T07:51:28.623Z,6.80
2019-01-20T07:54:01.560Z,6.70
2019-01-20T07:56:34.818Z,6.90
2019-01-20T07:59:07.453Z,6.90
2019-01-20T08:01:40.633Z,7.00
2019-01-20T08:04:13.323Z,6.90
2019-01-20T08:06:45.873Z,6.90
2019-01-20T08:09:18.844Z,6.80
2019-01-20T08:11:52.003Z,6.80
2019-01-20T08:14:24.505Z,7.20
2019-01-20T08:16:57.763Z,7.30
2019-01-20T08:19:30.263Z,7.40
2019-01-20T08:22:03.207Z,7.30
2019-01-20T08:24:35.786Z,7.30
2019-01-20T08:27:09.023Z,7.40
2019-01-20T08:29:41.884Z,7.40
2019-01-20T08:32:15.303Z,7.60
2019-01-20T08:34:48.263Z,7.70
2019-01-20T08:37:20.924Z,7.70
2019-01-20T08:39:53.894Z,7.70
2019-01-20T08:42:27.243Z,7.70
2019-01-20T08:45:00.304Z,7.80
2019-01-20T08:47:46.144Z,7.80
2019-01-20T08:50:19.829Z,8.00
2019-01-20T08:52:52.903Z,8.20
2019-01-20T08:55:25.994Z,8.20
2019-01-20T08:58:01.444Z,8.30
2019-01-20T09:00:33.934Z,8.10
2019-01-20T09:03:07.159Z,8.30
2019-01-20T09:05:40.184Z,8.20
2019-01-20T09:08:14.081Z,8.10
2019-01-20T09:10:46.523Z,8.20
2019-01-20T09:13:20.624Z,8.20
2019-01-20T09:15:53.434Z,8.30
2019-01-20T09:18:28.849Z,8.20
2019-01-20T09:21:02.054Z,8.30
2019-01-20T09:23:35.194Z,8.40
2019-01-20T09:26:08.354Z,8.50
2019-01-20T09:28:41.269Z,8.40
2019-01-20T09:31:16.703Z,8.40
2019-01-20T09:33:49.783Z,8.50
2019-01-20T09:36:22.223Z,8.40
2019-01-20T09:38:55.264Z,8.40
2019-01-20T09:41:28.143Z,8.40
2019-01-20T09:44:00.944Z,8.50
2019-01-20T09:46:34.069Z,8.60
2019-01-20T09:49:06.749Z,8.80
2019-01-20T09:51:40.713Z,8.90
2019-01-20T09:54:14.579Z,8.90
2019-01-20T09:56:47.543Z,8.90
2019-01-20T09:59:20.144Z,8.80
2019-01-20T10:01:52.859Z,9.00
2019-01-20T10:04:25.523Z,9.00
2019-01-20T10:06:58.734Z,9.20
2019-01-20T10:09:31.603Z,9.10
2019-01-20T10:12:04.474Z,9.20
2019-01-20T10:14:37.238Z,9.20
2019-01-20T10:17:10.083Z,9.30
2019-01-20T10:19:42.866Z,9.30
2019-01-20T10:22:15.863Z,9.40
2019-01-20T10:24:48.524Z,9.50
2019-01-20T10:27:21.153Z,9.50
2019-01-20T10:29:54.003Z,9.60
2019-01-20T10:32:26.999Z,9.70
2019-01-20T10:35:00.385Z,9.70
2019-01-20T10:37:33.223Z,9.60
2019-01-20T10:40:06.343Z,9.60
2019-01-20T10:42:39.283Z,9.70
2019-01-20T10:45:13.383Z,9.80
2019-01-20T10:47:51.074Z,9.90
2019-01-20T10:50:24.289Z,9.80
2019-01-20T10:52:57.323Z,9.80
2019-01-20T10:55:31.105Z,9.90
2019-01-20T10:58:04.107Z,10.10
2019-01-20T11:00:40.099Z,10.00
2019-01-20T11:03:13.325Z,10.10
2019-01-20T11:05:46.934Z,10.10
2019-01-20T11:08:19.986Z,10.10
2019-01-20T11:10:55.768Z,10.10
2019-01-20T11:13:29.433Z,10.20
2019-01-20T11:16:04.743Z,10.20
2019-01-20T11:18:37.979Z,10.20
2019-01-20T11:21:11.306Z,10.30
2019-01-20T11:23:45.202Z,10.20
2019-01-20T11:26:19.144Z,10.30
2019-01-20T11:28:52.694Z,10.40
2019-01-20T11:31:25.419Z,10.50
2019-01-20T11:33:58.874Z,10.60
2019-01-20T11:36:32.854Z,10.70
2019-01-20T11:39:10.746Z,10.70
2019-01-20T11:41:43.779Z,10.80
2019-01-20T11:44:17.170Z,10.80
2019-01-20T11:46:53.346Z,11.00
2019-01-20T11:49:25.853Z,11.10
2019-01-20T11:51:58.885Z,11.10
2019-01-20T11:54:32.033Z,11.10
2019-01-20T11:57:05.834Z,11.10
2019-01-20T11:59:38.833Z,11.10
2019-01-20T12:02:11.753Z,11.10
2019-01-20T12:04:44.353Z,11.20
2019-01-20T12:07:17.815Z,11.20
2019-01-20T12:09:50.576Z,11.20
2019-01-20T12:12:24.033Z,11.20
2019-01-20T12:14:58.809Z,11.30
2019-01-20T12:17:32.134Z,11.30
2019-01-20T12:20:06.174Z,11.20
2019-01-20T12:22:39.297Z,11.30
2019-01-20T12:25:14.954Z,11.40
2019-01-20T12:27:48.073Z,11.40
2019-01-20T12:30:23.944Z,11.50
2019-01-20T12:32:58.274Z,11.50
2019-01-20T12:35:32.913Z,11.60
2019-01-20T12:38:06.529Z,11.50
2019-01-20T12:40:48.374Z,11.60
2019-01-20T12:43:23.173Z,11.60
2019-01-20T12:45:56.185Z,11.70
2019-01-20T12:48:30.034Z,11.70
2019-01-20T12:51:02.754Z,11.70
2019-01-20T12:53:35.874Z,11.70
2019-01-20T12:56:08.624Z,11.70
2019-01-20T12:58:42.594Z,11.70
2019-01-20T13:01:15.677Z,11.80
2019-01-20T13:03:48.468Z,11.70
2019-01-20T13:06:21.289Z,11.80
2019-01-20T13:08:54.678Z,11.80
2019-01-20T13:11:29.893Z,11.80
2019-01-20T13:14:02.815Z,11.70
2019-01-20T13:16:36.624Z,11.70
2019-01-20T13:19:12.209Z,11.80
2019-01-20T13:21:47.034Z,11.80
2019-01-20T13:24:19.769Z,11.70
2019-01-20T13:26:55.354Z,11.70
2019-01-20T13:29:28.574Z,11.70
2019-01-20T13:32:01.948Z,11.70
2019-01-20T13:34:34.684Z,11.70
2019-01-20T13:37:07.674Z,11.70
2019-01-20T13:39:42.756Z,11.70
2019-01-20T13:42:16.095Z,11.70
2019-01-20T13:44:49.323Z,11.70
2019-01-20T13:47:22.223Z,11.70
2019-01-20T13:49:56.753Z,11.60
2019-01-20T13:52:29.744Z,11.60
2019-01-20T13:55:03.099Z,11.50
2019-01-20T13:57:35.831Z,11.40
2019-01-20T14:00:18.114Z,11.40
2019-01-20T14:02:51.731Z,11.30
2019-01-20T14:05:24.624Z,11.30
2019-01-20T14:07:57.655Z,11.30
2019-01-20T14:10:30.793Z,11.20
2019-01-20T14:13:03.153Z,11.20
2019-01-20T14:15:35.756Z,11.10
2019-01-20T14:18:08.655Z,11.10
2019-01-20T14:20:41.874Z,11.20
2019-01-20T14:23:14.734Z,11.10
2019-01-20T14:25:47.514Z,11.00
2019-01-20T14:28:20.536Z,11.10
2019-01-20T14:30:53.335Z,11.10
2019-01-20T14:33:26.297Z,11.00
2019-01-20T14:35:59.056Z,11.00
2019-01-20T14:38:31.575Z,10.90
2019-01-20T14:41:04.829Z,10.80
2019-01-20T14:43:37.753Z,10.90
2019-01-20T14:46:10.108Z,10.90
2019-01-20T14:48:43.120Z,10.80
2019-01-20T14:51:17.313Z,10.80
2019-01-20T14:53:49.983Z,10.70
2019-01-20T14:56:23.454Z,10.70
2019-01-20T14:58:56.454Z,10.60
2019-01-20T15:01:29.113Z,10.60
2019-01-20T15:04:02.415Z,10.60
2019-01-20T15:06:34.834Z,10.50
2019-01-20T15:09:10.014Z,10.50
2019-01-20T15:11:42.834Z,10.50
2019-01-20T15:14:15.673Z,10.50
2019-01-20T15:16:48.494Z,10.50
2019-01-20T15:19:21.871Z,10.50
2019-01-20T15:21:54.834Z,10.50
2019-01-20T15:24:31.369Z,10.40
2019-01-20T15:27:01.935Z,10.40
2019-01-20T15:29:34.646Z,10.50
2019-01-20T15:32:07.293Z,10.40
2019-01-20T15:34:40.753Z,10.40
2019-01-20T15:37:13.835Z,10.40
2019-01-20T15:39:46.734Z,10.30
2019-01-20T15:42:19.889Z,10.40
2019-01-20T15:44:52.289Z,10.30
2019-01-20T15:47:24.678Z,10.40
2019-01-20T15:49:57.474Z,10.30
2019-01-20T15:52:32.754Z,10.30
2019-01-20T15:55:05.839Z,10.30
2019-01-20T15:57:38.755Z,10.20
2019-01-20T16:00:14.543Z,10.20
2019-01-20T16:02:48.634Z,10.20
2019-01-20T16:05:21.959Z,10.30
2019-01-20T16:07:54.968Z,10.20
2019-01-20T16:10:27.394Z,10.20
2019-01-20T16:13:00.563Z,10.20
2019-01-20T16:15:38.489Z,10.20
2019-01-20T16:18:14.303Z,10.20
2019-01-20T16:20:45.889Z,10.20
2019-01-20T16:23:18.655Z,10.20
2019-01-20T16:25:51.333Z,10.20
2019-01-20T16:28:24.034Z,10.10
2019-01-20T16:30:57.388Z,10.10
2019-01-20T16:33:30.374Z,10.00
2019-01-20T16:36:03.220Z,10.00
2019-01-20T16:38:35.723Z,10.10
2019-01-20T16:41:08.263Z,10.00
2019-01-20T16:43:41.023Z,10.00
2019-01-20T16:46:13.553Z,9.90
2019-01-20T16:48:45.994Z,10.00
2019-01-20T16:51:18.554Z,10.00
2019-01-20T16:53:52.944Z,9.90
2019-01-20T16:56:25.683Z,9.90
2019-01-20T16:58:58.298Z,9.80
2019-01-20T17:01:30.824Z,9.80
2019-01-20T17:04:03.179Z,9.80
2019-01-20T17:06:35.881Z,9.70
2019-01-20T17:09:10.848Z,9.70
2019-01-20T17:11:43.648Z,9.70
2019-01-20T17:14:16.579Z,9.70
2019-01-20T17:16:49.128Z,9.70
2019-01-20T17:19:21.529Z,9.60
2019-01-20T17:21:54.634Z,9.50
2019-01-20T17:24:27.158Z,9.50
2019-01-20T17:26:59.899Z,9.50
2019-01-20T17:29:32.390Z,9.50
2019-01-20T17:32:05.424Z,9.60
2019-01-20T17:34:37.879Z,9.50
2019-01-20T17:37:10.449Z,9.50
2019-01-20T17:39:42.720Z,9.60
2019-01-20T17:42:15.194Z,9.50
2019-01-20T17:44:47.704Z,9.50
2019-01-20T17:47:20.039Z,9.50
2019-01-20T17:49:52.890Z,9.40
2019-01-20T17:52:25.194Z,9.40
2019-01-20T17:54:59.410Z,9.40
2019-01-20T17:57:35.654Z,9.40
2019-01-20T18:00:10.694Z,9.40
2019-01-20T18:02:43.283Z,9.40
2019-01-20T18:05:18.946Z,9.40
2019-01-20T18:07:51.754Z,9.30
2019-01-20T18:10:24.869Z,9.30
2019-01-20T18:12:57.552Z,9.30
2019-01-20T18:15:30.019Z,9.40
2019-01-20T18:18:02.894Z,9.30
2019-01-20T18:20:36.300Z,9.30
2019-01-20T18:23:09.574Z,9.40
2019-01-20T18:25:42.784Z,9.40
2019-01-20T18:28:15.819Z,9.30
2019-01-20T18:30:48.263Z,9.30
2019-01-20T18:33:22.168Z,9.30
2019-01-20T18:35:54.589Z,9.30
2019-01-20T18:38:27.799Z,9.40
2019-01-20T18:41:01.644Z,9.40
2019-01-20T18:43:34.069Z,9.30
2019-01-20T18:46:07.484Z,9.30
2019-01-20T18:48:40.004Z,9.30
2019-01-20T18:51:12.919Z,9.30
2019-01-20T18:53:45.369Z,9.30
2019-01-20T18:56:18.989Z,9.30
2019-01-20T18:58:51.609Z,9.30
2019-01-20T19:01:24.124Z,9.30
2019-01-20T19:03:57.023Z,9.30
2019-01-20T19:06:29.639Z,9.30
2019-01-20T19:09:02.125Z,9.30
2019-01-20T19:11:37.099Z,9.20
2019-01-20T19:14:09.944Z,9.20
2019-01-20T19:16:42.248Z,9.20
2019-01-20T19:19:14.779Z,9.10
2019-01-20T19:21:47.074Z,9.10
2019-01-20T19:24:19.772Z,9.20
2019-01-20T19:26:53.508Z,9.10
2019-01-20T19:29:25.968Z,9.10
2019-01-20T19:31:59.234Z,9.10
2019-01-20T19:34:31.539Z,9.10
2019-01-20T19:37:03.983Z,9.00
2019-01-20T19:39:36.821Z,9.00
2019-01-20T19:42:09.723Z,9.00
2019-01-20T19:44:44.725Z,8.90
2019-01-20T19:47:19.174Z,8.90
2019-01-20T19:49:51.634Z,8.90
2019-01-20T19:52:23.954Z,8.90
2019-01-20T19:54:56.479Z,8.90
2019-01-20T19:57:30.479Z,8.90
2019-01-20T20:00:02.724Z,8.90
2019-01-20T20:02:36.504Z,8.90
2019-01-20T20:05:12.928Z,8.90
2019-01-20T20:07:46.338Z,8.90
2019-01-20T20:10:21.719Z,8.90
2019-01-20T20:12:55.324Z,8.90
2019-01-20T20:15:28.888Z,8.80
2019-01-20T20:18:01.490Z,8.80
2019-01-20T20:20:35.323Z,8.90
2019-01-20T20:23:09.959Z,8.80
2019-01-20T20:25:44.264Z,9.00
2019-01-20T20:28:16.754Z,9.00
2019-01-20T20:30:49.518Z,9.10
2019-01-20T20:33:22.234Z,9.10
2019-01-20T20:35:55.234Z,9.10
2019-01-20T20:38:28.096Z,9.10
2019-01-20T20:41:00.609Z,9.00
2019-01-20T20:43:33.308Z,9.10
2019-01-20T20:46:05.679Z,9.00
2019-01-20T20:48:40.059Z,9.00
2019-01-20T20:51:12.904Z,9.00
2019-01-20T20:53:47.253Z,9.00
2019-01-20T20:56:19.459Z,9.00
2019-01-20T20:58:53.779Z,9.00
2019-01-20T21:01:26.090Z,9.00
2019-01-20T21:03:59.879Z,9.00
2019-01-20T21:06:32.135Z,9.00
2019-01-20T21:09:05.479Z,9.00
2019-01-20T21:11:42.260Z,9.00
2019-01-20T21:14:14.929Z,9.00
2019-01-20T21:16:48.004Z,9.00
2019-01-20T21:19:21.744Z,9.00
2019-01-20T21:21:55.489Z,9.00
2019-01-20T21:24:28.227Z,8.90
2019-01-20T21:27:01.639Z,8.90
2019-01-20T21:29:35.164Z,8.90
2019-01-20T21:32:08.794Z,8.80
2019-01-20T21:34:41.788Z,8.80
2019-01-20T21:37:14.370Z,8.70
2019-01-20T21:39:47.330Z,8.70
2019-01-20T21:42:20.154Z,8.60
2019-01-20T21:44:52.474Z,8.60
2019-01-20T21:47:24.773Z,8.60
2019-01-20T21:49:57.424Z,8.70
2019-01-20T21:52:29.799Z,8.50
2019-01-20T21:55:02.644Z,8.50
2019-01-20T21:57:35.159Z,8.60
2019-01-20T22:00:11.603Z,8.60
2019-01-20T22:02:44.158Z,8.60
2019-01-20T22:05:16.524Z,8.70
2019-01-20T22:07:49.409Z,8.70
2019-01-20T22:10:23.434Z,8.70
2019-01-20T22:12:56.293Z,8.70
2019-01-20T22:15:28.638Z,8.80
2019-01-20T22:18:00.886Z,8.60
2019-01-20T22:20:33.448Z,8.70
2019-01-20T22:23:05.889Z,8.60
2019-01-20T22:25:38.793Z,8.70
2019-01-20T22:28:11.424Z,8.70
2019-01-20T22:30:44.019Z,8.60
2019-01-20T22:33:16.568Z,8.60
2019-01-20T22:35:49.409Z,8.60
2019-01-20T22:38:21.579Z,8.50
2019-01-20T22:40:54.284Z,8.40
2019-01-20T22:43:26.874Z,8.40
2019-01-20T22:45:59.659Z,8.30
2019-01-20T22:48:31.863Z,8.20
2019-01-20T22:51:04.519Z,8.30
2019-01-20T22:53:37.170Z,8.30
2019-01-20T22:56:09.898Z,8.30
2019-01-20T22:58:42.738Z,8.30
2019-01-20T23:01:22.042Z,8.20
2019-01-20T23:03:54.399Z,8.10
2019-01-20T23:06:27.040Z,8.10
2019-01-20T23:09:06.351Z,8.00
2019-01-20T23:11:33.075Z,7.90
2019-01-20T23:14:07.358Z,7.90
2019-01-20T23:16:40.139Z,7.80
2019-01-20T23:19:13.173Z,7.80
2019-01-20T23:21:45.988Z,7.80
2019-01-20T23:24:18.853Z,7.80
2019-01-20T23:26:51.273Z,7.90
2019-01-20T23:29:23.679Z,7.80
2019-01-20T23:31:56.069Z,7.70
2019-01-20T23:34:28.558Z,7.60
2019-01-20T23:37:00.828Z,7.60
2019-01-20T23:39:33.018Z,7.60
2019-01-20T23:42:05.609Z,7.60
2019-01-20T23:44:38.618Z,7.60
2019-01-20T23:47:15.322Z,7.50
2019-01-20T23:49:46.998Z,7.50
2019-01-20T23:52:19.275Z,7.40
2019-01-20T23:54:52.168Z,7.40
2019-01-20T23:57:24.905Z,7.40
2019-01-20T23:59:57.108Z,7.40
